Terminal Aerodrome Forecast
Issued by NWS New Orleans/Baton Rouge, LA

Home | Current Version | Previous Version | Text Only | Print | Product List | Glossary On
Versions: 1 2 3 4 5 6 7 8 9 10 11 12 13 14 15
000
FTUS44 KLIX 181307 AAA
TAFBTR
TAF AMD
KBTR 181307Z 1813/1912 00000KT 2SM BR SCT004 BKN027 OVC040
     FM181400 09004KT 3SM BR VCSH BKN005 OVC045
     FM181700 00000KT 5SM BR VCSH BKN015 OVC040
     FM181900 VRB03KT P6SM BKN015 OVC035
     FM190000 VRB03KT 5SM BR BKN025 OVC035
     FM190200 11004KT 3SM BR BKN015 OVC030
     FM190700 VRB03KT 1/2SM FG BKN003 OVC020=

USA.gov is the U.S. government's official web portal to all federal, state and local government web resources and services.